Time,TemperatureF,DewpointF,PressureIn,WindDirection,WindDirectionDegrees,WindSpeedMPH,WindSpeedGustMPH,Humidity,HourlyPrecipIn,Conditions,Clouds,dailyrainin,SoftwareType,DateUTC
2013-10-08 00:02:00,54.0,10.0,29.94,ENE,75,5.0,12.0,17,0.00,,,0.00,meteohub,2013-10-08 07:02:00,
2013-10-08 00:07:00,54.0,10.0,29.94,SE,126,3.0,13.0,17,0.00,,,0.00,meteohub,2013-10-08 07:07:00,
2013-10-08 00:12:00,54.0,10.0,29.94,SW,228,3.0,13.0,17,0.00,,,0.00,meteohub,2013-10-08 07:12:00,
2013-10-08 00:17:00,53.8,10.0,29.93,East,98,4.0,12.0,17,0.00,,,0.00,meteohub,2013-10-08 07:17:00,
2013-10-08 00:22:00,53.8,10.0,29.93,SSW,198,2.0,12.0,17,0.00,,,0.00,meteohub,2013-10-08 07:22:00,
2013-10-08 00:27:00,54.0,10.0,29.93,SSW,195,5.0,10.0,17,0.00,,,0.00,meteohub,2013-10-08 07:27:00,
2013-10-08 00:32:00,54.0,8.8,29.93,SE,129,3.0,10.0,16,0.00,,,0.00,meteohub,2013-10-08 07:32:00,
2013-10-08 00:37:00,53.8,8.6,29.93,South,169,3.0,10.0,16,0.00,,,0.00,meteohub,2013-10-08 07:37:00,
2013-10-08 00:42:00,53.6,8.4,29.92,SSE,151,12.0,12.0,16,0.00,,,0.00,meteohub,2013-10-08 07:42:00,
2013-10-08 00:47:00,53.6,8.4,29.92,ENE,72,5.0,13.0,16,0.00,,,0.00,meteohub,2013-10-08 07:47:00,
2013-10-08 00:52:00,53.8,8.6,29.92,ENE,72,6.0,13.0,16,0.00,,,0.00,meteohub,2013-10-08 07:52:00,
2013-10-08 00:57:00,53.8,11.3,29.92,East,91,5.0,13.0,18,0.00,,,0.00,meteohub,2013-10-08 07:57:00,
2013-10-08 01:02:00,54.1,14.0,29.92,ESE,120,5.0,13.0,20,0.00,,,0.00,meteohub,2013-10-08 08:02:00,
2013-10-08 01:07:00,54.1,12.7,29.92,ESE,117,6.0,15.0,19,0.00,,,0.00,meteohub,2013-10-08 08:07:00,
2013-10-08 01:12:00,54.1,12.7,29.92,East,101,6.0,15.0,19,0.00,,,0.00,meteohub,2013-10-08 08:12:00,
2013-10-08 01:17:00,54.1,9.0,29.92,SSE,150,4.0,12.0,16,0.00,,,0.00,meteohub,2013-10-08 08:17:00,
2013-10-08 01:22:00,54.0,8.8,29.92,SE,134,9.0,14.0,16,0.00,,,0.00,meteohub,2013-10-08 08:22:00,
2013-10-08 01:27:00,53.8,10.0,29.92,East,89,3.0,15.0,17,0.00,,,0.00,meteohub,2013-10-08 08:27:00,
2013-10-08 01:32:00,53.6,9.9,29.92,ENE,75,6.0,15.0,17,0.00,,,0.00,meteohub,2013-10-08 08:32:00,
2013-10-08 01:37:00,53.4,9.7,29.92,SSE,156,3.0,15.0,17,0.00,,,0.00,meteohub,2013-10-08 08:37:00,
2013-10-08 01:42:00,53.4,10.9,29.92,SSE,149,7.0,14.0,18,0.00,,,0.00,meteohub,2013-10-08 08:42:00,
2013-10-08 01:47:00,53.2,10.8,29.92,SE,135,4.0,14.0,18,0.00,,,0.00,meteohub,2013-10-08 08:47:00,
2013-10-08 01:52:00,53.1,10.6,29.92,ESE,117,4.0,14.0,18,0.00,,,0.00,meteohub,2013-10-08 08:52:00,
2013-10-08 01:57:00,52.9,11.7,29.91,ESE,120,4.0,12.0,19,0.00,,,0.00,meteohub,2013-10-08 08:57:00,
2013-10-08 02:02:00,52.5,11.5,29.91,South,184,6.0,11.0,19,0.00,,,0.00,meteohub,2013-10-08 09:02:00,
2013-10-08 02:07:00,52.3,11.3,29.92,SSW,198,3.0,12.0,19,0.00,,,0.00,meteohub,2013-10-08 09:07:00,
2013-10-08 02:12:00,52.3,10.0,29.91,SSE,155,9.0,13.0,18,0.00,,,0.00,meteohub,2013-10-08 09:12:00,
2013-10-08 02:17:00,52.3,8.8,29.91,SSE,148,8.0,17.0,17,0.00,,,0.00,meteohub,2013-10-08 09:17:00,
2013-10-08 02:22:00,52.3,10.0,29.91,ESE,113,7.0,17.0,18,0.00,,,0.00,meteohub,2013-10-08 09:22:00,
2013-10-08 02:27:00,52.2,9.9,29.91,SE,136,5.0,14.0,18,0.00,,,0.00,meteohub,2013-10-08 09:27:00,
2013-10-08 02:32:00,52.2,9.9,29.90,ESE,116,7.0,14.0,18,0.00,,,0.00,meteohub,2013-10-08 09:32:00,
2013-10-08 02:37:00,52.2,9.9,29.90,SE,128,3.0,13.0,18,0.00,,,0.00,meteohub,2013-10-08 09:37:00,
2013-10-08 02:42:00,52.2,12.2,29.90,SE,144,4.0,15.0,20,0.00,,,0.00,meteohub,2013-10-08 09:42:00,
2013-10-08 02:47:00,52.2,11.1,29.90,South,181,3.0,15.0,19,0.00,,,0.00,meteohub,2013-10-08 09:47:00,
2013-10-08 02:52:00,52.2,11.1,29.89,NE,36,7.0,15.0,19,0.00,,,0.00,meteohub,2013-10-08 09:52:00,
2013-10-08 02:57:00,52.2,11.1,29.89,SE,141,3.0,14.0,19,0.00,,,0.00,meteohub,2013-10-08 09:57:00,
2013-10-08 03:02:00,52.3,16.5,29.89,SE,128,4.0,14.0,24,0.00,,,0.00,meteohub,2013-10-08 10:02:00,
2013-10-08 03:07:00,52.3,11.3,29.89,East,98,5.0,14.0,19,0.00,,,0.00,meteohub,2013-10-08 10:07:00,
2013-10-08 03:12:00,52.3,15.6,29.89,ESE,120,5.0,13.0,23,0.00,,,0.00,meteohub,2013-10-08 10:12:00,
2013-10-08 03:17:00,52.2,16.5,29.89,ESE,113,11.0,13.0,24,0.00,,,0.00,meteohub,2013-10-08 10:17:00,
2013-10-08 03:22:00,52.2,20.8,29.89,East,87,5.0,13.0,29,0.00,,,0.00,meteohub,2013-10-08 10:22:00,
2013-10-08 03:27:00,52.2,22.5,29.88,SSE,148,7.0,13.0,31,0.00,,,0.00,meteohub,2013-10-08 10:27:00,
2013-10-08 03:32:00,52.2,21.7,29.88,SE,131,6.0,12.0,30,0.00,,,0.00,meteohub,2013-10-08 10:32:00,
2013-10-08 03:37:00,52.2,21.7,29.88,ESE,104,3.0,12.0,30,0.00,,,0.00,meteohub,2013-10-08 10:37:00,
2013-10-08 03:42:00,52.0,21.6,29.88,NE,38,4.0,16.0,30,0.00,,,0.00,meteohub,2013-10-08 10:42:00,
2013-10-08 03:47:00,52.0,21.6,29.88,SE,129,3.0,16.0,30,0.00,,,0.00,meteohub,2013-10-08 10:47:00,
2013-10-08 03:52:00,51.8,21.4,29.88,East,98,5.0,16.0,30,0.00,,,0.00,meteohub,2013-10-08 10:52:00,
2013-10-08 03:57:00,52.0,21.6,29.88,ENE,74,3.0,14.0,30,0.00,,,0.00,meteohub,2013-10-08 10:57:00,
2013-10-08 04:02:00,52.2,20.8,29.88,SSE,149,3.0,14.0,29,0.00,,,0.00,meteohub,2013-10-08 11:02:00,
2013-10-08 04:07:00,52.5,19.4,29.88,SE,127,4.0,14.0,27,0.00,,,0.00,meteohub,2013-10-08 11:07:00,
2013-10-08 04:12:00,52.9,19.8,29.88,NNW,338,3.0,13.0,27,0.00,,,0.00,meteohub,2013-10-08 11:12:00,
2013-10-08 04:17:00,52.9,19.8,29.88,SE,131,2.0,13.0,27,0.00,,,0.00,meteohub,2013-10-08 11:17:00,
2013-10-08 04:22:00,53.1,19.0,29.88,ESE,111,4.0,12.0,26,0.00,,,0.00,meteohub,2013-10-08 11:22:00,
2013-10-08 04:27:00,53.1,19.0,29.88,SSW,195,4.0,13.0,26,0.00,,,0.00,meteohub,2013-10-08 11:27:00,
2013-10-08 04:32:00,53.1,19.0,29.88,SE,134,1.0,13.0,26,0.00,,,0.00,meteohub,2013-10-08 11:32:00,
2013-10-08 04:37:00,53.1,19.0,29.88,South,181,3.0,13.0,26,0.00,,,0.00,meteohub,2013-10-08 11:37:00,
2013-10-08 04:42:00,53.1,18.1,29.88,ESE,122,11.0,13.0,25,0.00,,,0.00,meteohub,2013-10-08 11:42:00,
2013-10-08 04:47:00,53.1,18.1,29.88,South,180,6.0,13.0,25,0.00,,,0.00,meteohub,2013-10-08 11:47:00,
2013-10-08 04:52:00,53.1,18.1,29.88,ESE,113,5.0,13.0,25,0.00,,,0.00,meteohub,2013-10-08 11:52:00,
2013-10-08 04:57:00,53.1,19.0,29.88,SSE,165,3.0,13.0,26,0.00,,,0.00,meteohub,2013-10-08 11:57:00,
2013-10-08 05:02:00,52.7,19.6,29.88,East,83,5.0,13.0,27,0.00,,,0.00,meteohub,2013-10-08 12:02:00,
2013-10-08 05:07:00,52.3,19.4,29.87,SSW,200,2.0,13.0,27,0.00,,,0.00,meteohub,2013-10-08 12:07:00,
2013-10-08 05:12:00,52.3,19.4,29.87,NE,45,3.0,11.0,27,0.00,,,0.00,meteohub,2013-10-08 12:12:00,
2013-10-08 05:17:00,52.2,19.2,29.87,ESE,105,5.0,10.0,27,0.00,,,0.00,meteohub,2013-10-08 12:17:00,
2013-10-08 05:22:00,52.5,19.4,29.87,SW,236,3.0,15.0,27,0.00,,,0.00,meteohub,2013-10-08 12:22:00,
2013-10-08 05:27:00,52.7,19.6,29.87,ESE,122,3.0,15.0,27,0.00,,,0.00,meteohub,2013-10-08 12:27:00,
2013-10-08 05:32:00,52.5,20.3,29.87,East,83,2.0,15.0,28,0.00,,,0.00,meteohub,2013-10-08 12:32:00,
2013-10-08 05:37:00,52.5,20.3,29.87,ESE,103,5.0,11.0,28,0.00,,,0.00,meteohub,2013-10-08 12:37:00,
2013-10-08 05:42:00,52.3,20.1,29.87,ESE,111,2.0,11.0,28,0.00,,,0.00,meteohub,2013-10-08 12:42:00,
2013-10-08 05:47:00,52.2,20.8,29.87,SE,136,3.0,11.0,29,0.00,,,0.00,meteohub,2013-10-08 12:47:00,
2013-10-08 05:52:00,52.2,20.8,29.87,SE,131,3.0,11.0,29,0.00,,,0.00,meteohub,2013-10-08 12:52:00,
2013-10-08 05:57:00,52.5,21.2,29.87,SE,141,8.0,12.0,29,0.00,,,0.00,meteohub,2013-10-08 12:57:00,
2013-10-08 06:02:00,52.9,20.7,29.87,ENE,70,4.0,12.0,28,0.00,,,0.00,meteohub,2013-10-08 13:02:00,
2013-10-08 06:07:00,52.7,20.5,29.87,ESE,107,4.0,14.0,28,0.00,,,0.00,meteohub,2013-10-08 13:07:00,
2013-10-08 06:12:00,52.9,20.7,29.87,ESE,122,4.0,14.0,28,0.00,,,0.00,meteohub,2013-10-08 13:12:00,
2013-10-08 06:17:00,52.9,21.6,29.88,SE,134,4.0,12.0,29,0.00,,,0.00,meteohub,2013-10-08 13:17:00,
2013-10-08 06:22:00,53.1,20.8,29.88,ESE,120,7.0,12.0,28,0.00,,,0.00,meteohub,2013-10-08 13:22:00,
2013-10-08 06:27:00,52.9,19.8,29.88,ESE,120,3.0,12.0,27,0.00,,,0.00,meteohub,2013-10-08 13:27:00,
2013-10-08 06:32:00,52.5,17.8,29.88,SSE,156,1.0,11.0,25,0.00,,,0.00,meteohub,2013-10-08 13:32:00,
2013-10-08 06:37:00,52.5,18.7,29.87,SSE,152,2.0,11.0,26,0.00,,,0.00,meteohub,2013-10-08 13:37:00,
2013-10-08 06:42:00,52.5,19.4,29.87,SSE,162,12.0,12.0,27,0.00,,,0.00,meteohub,2013-10-08 13:42:00,
2013-10-08 06:47:00,52.9,20.7,29.87,East,96,6.0,13.0,28,0.00,,,0.00,meteohub,2013-10-08 13:47:00,
2013-10-08 06:52:00,52.9,20.7,29.87,South,169,4.0,13.0,28,0.00,,,0.00,meteohub,2013-10-08 13:52:00,
2013-10-08 06:57:00,53.1,21.6,29.87,SSE,148,14.0,14.0,29,0.00,,,0.00,meteohub,2013-10-08 13:57:00,
2013-10-08 07:02:00,53.1,20.8,29.87,ESE,115,4.0,14.0,28,0.00,,,0.00,meteohub,2013-10-08 14:02:00,
2013-10-08 07:07:00,53.2,21.0,29.87,SW,222,6.0,14.0,28,0.00,,,0.00,meteohub,2013-10-08 14:07:00,
2013-10-08 07:12:00,53.1,19.9,29.88,ESE,107,3.0,14.0,27,0.00,,,0.00,meteohub,2013-10-08 14:12:00,
2013-10-08 07:17:00,53.2,19.2,29.88,ENE,72,3.0,12.0,26,0.00,,,0.00,meteohub,2013-10-08 14:17:00,
2013-10-08 07:22:00,53.2,16.3,29.88,South,174,7.0,10.0,23,0.00,,,0.00,meteohub,2013-10-08 14:22:00,
2013-10-08 07:27:00,53.4,15.4,29.88,East,96,5.0,11.0,22,0.00,,,0.00,meteohub,2013-10-08 14:27:00,
2013-10-08 07:32:00,53.6,14.5,29.88,East,93,4.0,11.0,21,0.00,,,0.00,meteohub,2013-10-08 14:32:00,
2013-10-08 07:37:00,54.3,14.0,29.88,SE,133,3.0,11.0,20,0.00,,,0.00,meteohub,2013-10-08 14:37:00,
2013-10-08 07:42:00,55.0,16.9,29.88,SSE,150,6.0,16.0,22,0.00,,,0.00,meteohub,2013-10-08 14:42:00,
2013-10-08 07:47:00,55.4,17.2,29.88,SW,217,7.0,16.0,22,0.00,,,0.00,meteohub,2013-10-08 14:47:00,
2013-10-08 07:52:00,55.8,15.3,29.88,SE,132,5.0,16.0,20,0.00,,,0.00,meteohub,2013-10-08 14:52:00,
2013-10-08 07:57:00,55.9,16.5,29.88,SSE,155,2.0,16.0,21,0.00,,,0.00,meteohub,2013-10-08 14:57:00,
2013-10-08 08:02:00,56.3,14.5,29.88,SSE,155,6.0,16.0,19,0.00,,,0.00,meteohub,2013-10-08 15:02:00,
2013-10-08 08:07:00,56.5,15.8,29.89,South,176,14.0,19.0,20,0.00,,,0.00,meteohub,2013-10-08 15:07:00,
2013-10-08 08:12:00,56.7,16.0,29.88,East,84,5.0,19.0,20,0.00,,,0.00,meteohub,2013-10-08 15:12:00,
2013-10-08 08:17:00,56.7,17.2,29.88,South,174,5.0,17.0,21,0.00,,,0.00,meteohub,2013-10-08 15:17:00,
2013-10-08 08:22:00,57.0,17.4,29.88,SSE,155,6.0,17.0,21,0.00,,,0.00,meteohub,2013-10-08 15:22:00,
2013-10-08 08:27:00,57.2,17.6,29.88,SSW,193,4.0,15.0,21,0.00,,,0.00,meteohub,2013-10-08 15:27:00,
2013-10-08 08:32:00,57.6,18.0,29.89,SE,146,8.0,13.0,21,0.00,,,0.00,meteohub,2013-10-08 15:32:00,
2013-10-08 08:37:00,57.6,16.7,29.89,SSE,153,9.0,17.0,20,0.00,,,0.00,meteohub,2013-10-08 15:37:00,
2013-10-08 08:42:00,57.7,16.9,29.89,South,169,3.0,17.0,20,0.00,,,0.00,meteohub,2013-10-08 15:42:00,
2013-10-08 08:47:00,57.7,16.9,29.89,WNW,296,6.0,17.0,20,0.00,,,0.00,meteohub,2013-10-08 15:47:00,
2013-10-08 08:52:00,57.9,17.1,29.89,SE,132,2.0,16.0,20,0.00,,,0.00,meteohub,2013-10-08 15:52:00,
2013-10-08 08:57:00,58.3,16.2,29.90,WSW,240,2.0,16.0,19,0.00,,,0.00,meteohub,2013-10-08 15:57:00,
2013-10-08 09:02:00,58.1,17.2,29.89,East,80,3.0,15.0,20,0.00,,,0.00,meteohub,2013-10-08 16:02:00,
2013-10-08 09:07:00,58.3,16.2,29.90,SE,136,5.0,14.0,19,0.00,,,0.00,meteohub,2013-10-08 16:07:00,
2013-10-08 09:12:00,58.3,16.2,29.89,SSW,197,4.0,12.0,19,0.00,,,0.00,meteohub,2013-10-08 16:12:00,
2013-10-08 09:17:00,58.3,16.2,29.90,NW,315,5.0,12.0,19,0.00,,,0.00,meteohub,2013-10-08 16:17:00,
2013-10-08 09:22:00,57.9,15.8,29.90,SSE,165,5.0,16.0,19,0.00,,,0.00,meteohub,2013-10-08 16:22:00,
2013-10-08 09:27:00,57.9,17.1,29.90,SE,146,7.0,16.0,20,0.00,,,0.00,meteohub,2013-10-08 16:27:00,
2013-10-08 09:32:00,58.3,18.5,29.90,SSW,211,6.0,14.0,21,0.00,,,0.00,meteohub,2013-10-08 16:32:00,
2013-10-08 09:37:00,57.7,18.1,29.90,SSW,210,4.0,13.0,21,0.00,,,0.00,meteohub,2013-10-08 16:37:00,
2013-10-08 09:42:00,57.9,19.2,29.90,SE,124,5.0,14.0,22,0.00,,,0.00,meteohub,2013-10-08 16:42:00,
2013-10-08 09:47:00,57.9,19.2,29.89,ESE,116,2.0,14.0,22,0.00,,,0.00,meteohub,2013-10-08 16:47:00,
2013-10-08 09:52:00,58.5,19.8,29.90,ESE,107,4.0,14.0,22,0.00,,,0.00,meteohub,2013-10-08 16:52:00,
2013-10-08 09:57:00,58.8,21.0,29.90,SSE,148,2.0,11.0,23,0.00,,,0.00,meteohub,2013-10-08 16:57:00,
2013-10-08 10:02:00,58.6,21.0,29.90,SE,138,8.0,11.0,23,0.00,,,0.00,meteohub,2013-10-08 17:02:00,
2013-10-08 10:07:00,58.5,21.7,29.90,SSE,167,7.0,15.0,24,0.00,,,0.00,meteohub,2013-10-08 17:07:00,
2013-10-08 10:12:00,58.6,21.9,29.90,SE,141,8.0,15.0,24,0.00,,,0.00,meteohub,2013-10-08 17:12:00,
2013-10-08 10:17:00,58.8,22.1,29.89,SE,128,11.0,14.0,24,0.00,,,0.00,meteohub,2013-10-08 17:17:00,
2013-10-08 10:22:00,58.8,23.0,29.89,SSE,151,9.0,14.0,25,0.00,,,0.00,meteohub,2013-10-08 17:22:00,
2013-10-08 10:27:00,58.5,22.8,29.89,ESE,122,5.0,16.0,25,0.00,,,0.00,meteohub,2013-10-08 17:27:00,
2013-10-08 10:32:00,58.3,22.6,29.89,SE,138,6.0,16.0,25,0.00,,,0.00,meteohub,2013-10-08 17:32:00,
2013-10-08 10:37:00,58.1,22.5,29.89,ESE,102,2.0,16.0,25,0.00,,,0.00,meteohub,2013-10-08 17:37:00,
2013-10-08 10:42:00,58.3,23.5,29.90,SSE,152,7.0,16.0,26,0.00,,,0.00,meteohub,2013-10-08 17:42:00,
2013-10-08 10:47:00,58.1,24.3,29.90,ESE,102,8.0,16.0,27,0.00,,,0.00,meteohub,2013-10-08 17:47:00,
2013-10-08 10:52:00,58.3,23.5,29.89,SSW,192,3.0,16.0,26,0.00,,,0.00,meteohub,2013-10-08 17:52:00,
2013-10-08 10:57:00,58.3,23.5,29.89,SSE,149,7.0,15.0,26,0.00,,,0.00,meteohub,2013-10-08 17:57:00,
2013-10-08 11:02:00,58.5,23.7,29.89,ENE,58,4.0,15.0,26,0.00,,,0.00,meteohub,2013-10-08 18:02:00,
2013-10-08 11:07:00,58.6,22.8,29.89,East,91,13.0,15.0,25,0.00,,,0.00,meteohub,2013-10-08 18:07:00,
2013-10-08 11:12:00,58.5,22.8,29.89,ESE,107,5.0,13.0,25,0.00,,,0.00,meteohub,2013-10-08 18:12:00,
2013-10-08 11:17:00,58.8,23.0,29.89,SSW,193,3.0,17.0,25,0.00,,,0.00,meteohub,2013-10-08 18:17:00,
2013-10-08 11:22:00,58.8,22.1,29.88,WSW,243,4.0,17.0,24,0.00,,,0.00,meteohub,2013-10-08 18:22:00,
2013-10-08 11:27:00,58.8,23.0,29.88,SSE,153,3.0,17.0,25,0.00,,,0.00,meteohub,2013-10-08 18:27:00,
2013-10-08 11:32:00,58.8,23.0,29.88,South,176,3.0,16.0,25,0.00,,,0.00,meteohub,2013-10-08 18:32:00,
2013-10-08 11:37:00,58.8,23.0,29.88,NE,53,8.0,16.0,25,0.00,,,0.00,meteohub,2013-10-08 18:37:00,
2013-10-08 11:42:00,59.0,22.3,29.88,South,180,6.0,12.0,24,0.00,,,0.00,meteohub,2013-10-08 18:42:00,
2013-10-08 11:47:00,59.2,22.5,29.88,ENE,76,1.0,14.0,24,0.00,,,0.00,meteohub,2013-10-08 18:47:00,
2013-10-08 11:52:00,59.9,21.9,29.88,SSE,155,1.0,14.0,23,0.00,,,0.00,meteohub,2013-10-08 18:52:00,
2013-10-08 11:57:00,59.7,20.8,29.88,South,169,6.0,13.0,22,0.00,,,0.00,meteohub,2013-10-08 18:57:00,
2013-10-08 12:02:00,60.1,19.9,29.88,SW,219,4.0,14.0,21,0.00,,,0.00,meteohub,2013-10-08 19:02:00,
2013-10-08 12:07:00,59.4,20.5,29.88,SSE,160,5.0,14.0,22,0.00,,,0.00,meteohub,2013-10-08 19:07:00,
2013-10-08 12:12:00,58.8,20.1,29.88,WSW,250,6.0,15.0,22,0.00,,,0.00,meteohub,2013-10-08 19:12:00,
2013-10-08 12:17:00,59.2,20.3,29.88,ESE,107,4.0,17.0,22,0.00,,,0.00,meteohub,2013-10-08 19:17:00,
2013-10-08 12:22:00,59.5,19.6,29.88,SW,232,6.0,17.0,21,0.00,,,0.00,meteohub,2013-10-08 19:22:00,
2013-10-08 12:27:00,59.4,18.3,29.88,SE,124,6.0,15.0,20,0.00,,,0.00,meteohub,2013-10-08 19:27:00,
2013-10-08 12:32:00,59.2,19.2,29.88,SW,214,3.0,15.0,21,0.00,,,0.00,meteohub,2013-10-08 19:32:00,
2013-10-08 12:37:00,59.2,18.1,29.87,SW,231,6.0,15.0,20,0.00,,,0.00,meteohub,2013-10-08 19:37:00,
2013-10-08 12:42:00,59.0,19.0,29.87,SSE,151,4.0,15.0,21,0.00,,,0.00,meteohub,2013-10-08 19:42:00,
2013-10-08 12:47:00,59.2,19.2,29.87,ESE,110,11.0,17.0,21,0.00,,,0.00,meteohub,2013-10-08 19:47:00,
2013-10-08 12:52:00,59.2,20.3,29.86,SSE,148,3.0,17.0,22,0.00,,,0.00,meteohub,2013-10-08 19:52:00,
2013-10-08 12:57:00,59.2,20.3,29.86,SE,141,8.0,17.0,22,0.00,,,0.00,meteohub,2013-10-08 19:57:00,
2013-10-08 13:02:00,59.4,20.5,29.86,SE,138,9.0,14.0,22,0.00,,,0.00,meteohub,2013-10-08 20:02:00,
2013-10-08 13:07:00,59.2,21.4,29.86,SW,224,4.0,17.0,23,0.00,,,0.00,meteohub,2013-10-08 20:07:00,
2013-10-08 13:12:00,59.0,22.3,29.86,WSW,248,6.0,17.0,24,0.00,,,0.00,meteohub,2013-10-08 20:12:00,
2013-10-08 13:17:00,59.4,20.5,29.86,South,181,5.0,17.0,22,0.00,,,0.00,meteohub,2013-10-08 20:17:00,
2013-10-08 13:22:00,59.0,22.3,29.85,East,79,4.0,15.0,24,0.00,,,0.00,meteohub,2013-10-08 20:22:00,
2013-10-08 13:27:00,59.2,23.4,29.85,ESE,104,2.0,14.0,25,0.00,,,0.00,meteohub,2013-10-08 20:27:00,
2013-10-08 13:32:00,59.0,24.1,29.85,ESE,120,5.0,14.0,26,0.00,,,0.00,meteohub,2013-10-08 20:32:00,
2013-10-08 13:37:00,59.0,23.2,29.85,ESE,118,4.0,14.0,25,0.00,,,0.00,meteohub,2013-10-08 20:37:00,
2013-10-08 13:42:00,58.8,24.1,29.85,ESE,115,3.0,12.0,26,0.00,,,0.00,meteohub,2013-10-08 20:42:00,
2013-10-08 13:47:00,59.4,24.4,29.85,ESE,112,5.0,15.0,26,0.00,,,0.00,meteohub,2013-10-08 20:47:00,
2013-10-08 13:52:00,59.2,24.3,29.85,NW,308,4.0,16.0,26,0.00,,,0.00,meteohub,2013-10-08 20:52:00,
2013-10-08 13:57:00,59.0,25.9,29.84,WSW,243,4.0,16.0,28,0.00,,,0.00,meteohub,2013-10-08 20:57:00,
2013-10-08 14:02:00,59.4,25.3,29.84,SSW,198,11.0,16.0,27,0.00,,,0.00,meteohub,2013-10-08 21:02:00,
2013-10-08 14:07:00,59.2,25.2,29.84,SSE,159,2.0,14.0,27,0.00,,,0.00,meteohub,2013-10-08 21:07:00,
2013-10-08 14:12:00,59.4,25.3,29.84,East,87,6.0,14.0,27,0.00,,,0.00,meteohub,2013-10-08 21:12:00,
2013-10-08 14:17:00,59.5,26.4,29.84,SW,220,2.0,15.0,28,0.00,,,0.00,meteohub,2013-10-08 21:17:00,
2013-10-08 14:22:00,59.7,27.3,29.84,East,96,4.0,15.0,29,0.00,,,0.00,meteohub,2013-10-08 21:22:00,
2013-10-08 14:27:00,59.5,27.3,29.84,ESE,114,2.0,15.0,29,0.00,,,0.00,meteohub,2013-10-08 21:27:00,
2013-10-08 14:32:00,59.7,27.3,29.84,SE,132,6.0,9.0,29,0.00,,,0.00,meteohub,2013-10-08 21:32:00,
2013-10-08 14:37:00,59.7,27.3,29.84,SSW,195,2.0,10.0,29,0.00,,,0.00,meteohub,2013-10-08 21:37:00,
2013-10-08 14:42:00,59.4,27.1,29.84,South,170,6.0,14.0,29,0.00,,,0.00,meteohub,2013-10-08 21:42:00,
2013-10-08 14:47:00,59.2,28.6,29.83,SE,131,7.0,16.0,31,0.00,,,0.00,meteohub,2013-10-08 21:47:00,
2013-10-08 14:52:00,59.0,27.7,29.83,ESE,110,10.0,16.0,30,0.00,,,0.00,meteohub,2013-10-08 21:52:00,
2013-10-08 14:57:00,59.0,29.1,29.83,ESE,113,2.0,16.0,32,0.00,,,0.00,meteohub,2013-10-08 21:57:00,
2013-10-08 15:02:00,59.0,29.1,29.83,ESE,113,4.0,13.0,32,0.00,,,0.00,meteohub,2013-10-08 22:02:00,
2013-10-08 15:07:00,58.8,30.6,29.83,SE,126,7.0,12.0,34,0.00,,,0.00,meteohub,2013-10-08 22:07:00,
2013-10-08 15:12:00,58.3,30.0,29.83,SE,132,2.0,13.0,34,0.00,,,0.00,meteohub,2013-10-08 22:12:00,
2013-10-08 15:17:00,58.5,30.2,29.83,South,181,4.0,13.0,34,0.00,,,0.00,meteohub,2013-10-08 22:17:00,
2013-10-08 15:22:00,58.5,30.2,29.83,ESE,117,3.0,13.0,34,0.00,,,0.00,meteohub,2013-10-08 22:22:00,
2013-10-08 15:27:00,58.6,30.4,29.82,NE,53,5.0,12.0,34,0.00,,,0.00,meteohub,2013-10-08 22:27:00,
2013-10-08 15:32:00,58.3,30.7,29.82,ENE,75,12.0,12.0,35,0.00,,,0.00,meteohub,2013-10-08 22:32:00,
2013-10-08 15:37:00,57.9,31.1,29.82,SE,124,6.0,13.0,36,0.00,,,0.00,meteohub,2013-10-08 22:37:00,
2013-10-08 15:42:00,57.6,32.2,29.81,South,177,13.0,13.0,38,0.00,,,0.00,meteohub,2013-10-08 22:42:00,
2013-10-08 15:47:00,57.4,33.3,29.81,East,96,7.0,18.0,40,0.00,,,0.00,meteohub,2013-10-08 22:47:00,
2013-10-08 15:52:00,56.8,33.4,29.81,SE,132,3.0,18.0,41,0.00,,,0.00,meteohub,2013-10-08 22:52:00,
2013-10-08 15:57:00,56.7,34.3,29.81,ESE,113,7.0,16.0,43,0.00,,,0.00,meteohub,2013-10-08 22:57:00,
2013-10-08 16:02:00,56.1,35.6,29.81,SSW,208,10.0,12.0,46,0.00,,,0.00,meteohub,2013-10-08 23:02:00,
2013-10-08 16:07:00,55.8,35.8,29.81,East,82,6.0,16.0,47,0.00,,,0.00,meteohub,2013-10-08 23:07:00,
2013-10-08 16:12:00,55.6,36.1,29.81,SE,132,8.0,16.0,48,0.00,,,0.00,meteohub,2013-10-08 23:12:00,
2013-10-08 16:17:00,55.2,36.3,29.81,SE,146,4.0,16.0,49,0.00,,,0.00,meteohub,2013-10-08 23:17:00,
2013-10-08 16:22:00,55.0,37.2,29.81,ENE,76,8.0,16.0,51,0.00,,,0.00,meteohub,2013-10-08 23:22:00,
2013-10-08 16:27:00,54.9,37.6,29.81,WSW,238,3.0,16.0,52,0.00,,,0.00,meteohub,2013-10-08 23:27:00,
2013-10-08 16:32:00,54.7,38.3,29.81,South,187,2.0,16.0,54,0.00,,,0.00,meteohub,2013-10-08 23:32:00,
2013-10-08 16:37:00,54.5,38.1,29.81,West,278,5.0,13.0,54,0.00,,,0.00,meteohub,2013-10-08 23:37:00,
2013-10-08 16:42:00,54.1,38.3,29.81,SSE,148,7.0,14.0,55,0.00,,,0.00,meteohub,2013-10-08 23:42:00,
2013-10-08 16:47:00,54.0,39.6,29.80,SE,133,2.0,16.0,58,0.00,,,0.00,meteohub,2013-10-08 23:47:00,
2013-10-08 16:52:00,53.8,40.3,29.80,SSW,210,3.0,16.0,60,0.00,,,0.00,meteohub,2013-10-08 23:52:00,
2013-10-08 16:57:00,53.6,40.8,29.80,South,181,2.0,17.0,62,0.00,,,0.00,meteohub,2013-10-08 23:57:00,
2013-10-08 17:02:00,53.4,41.2,29.80,SSE,161,4.0,17.0,63,0.00,,,0.00,meteohub,2013-10-09 00:02:00,
2013-10-08 17:07:00,53.2,41.4,29.80,SSE,163,3.0,11.0,64,0.00,,,0.00,meteohub,2013-10-09 00:07:00,
2013-10-08 17:12:00,52.9,41.9,29.80,ESE,111,6.0,14.0,66,0.00,,,0.00,meteohub,2013-10-09 00:12:00,
2013-10-08 17:17:00,52.5,41.9,29.79,South,176,3.0,14.0,67,0.00,,,0.00,meteohub,2013-10-09 00:17:00,
2013-10-08 17:22:00,52.3,42.1,29.79,SSE,149,8.0,14.0,68,0.00,,,0.00,meteohub,2013-10-09 00:22:00,
2013-10-08 17:27:00,52.2,42.3,29.79,SE,145,5.0,14.0,69,0.00,,,0.00,meteohub,2013-10-09 00:27:00,
2013-10-08 17:32:00,51.8,42.3,29.78,South,172,2.0,11.0,70,0.00,,,0.00,meteohub,2013-10-09 00:32:00,
2013-10-08 17:37:00,51.4,42.8,29.79,SSW,203,2.0,10.0,72,0.00,,,0.00,meteohub,2013-10-09 00:37:00,
2013-10-08 17:42:00,51.1,42.8,29.78,South,172,2.0,14.0,73,0.00,,,0.00,meteohub,2013-10-09 00:42:00,
2013-10-08 17:47:00,50.7,43.2,29.78,SE,140,6.0,17.0,75,0.00,,,0.00,meteohub,2013-10-09 00:47:00,
2013-10-08 17:52:00,50.4,43.3,29.78,SE,132,3.0,17.0,77,0.00,,,0.00,meteohub,2013-10-09 00:52:00,
2013-10-08 17:57:00,50.0,44.1,29.78,SSE,152,8.0,17.0,80,0.00,,,0.00,meteohub,2013-10-09 00:57:00,
2013-10-08 18:02:00,49.6,44.4,29.78,ESE,105,6.0,11.0,82,0.00,,,0.00,meteohub,2013-10-09 01:02:00,
2013-10-08 18:07:00,49.5,44.8,29.78,SE,133,1.0,11.0,84,0.00,,,0.00,meteohub,2013-10-09 01:07:00,
2013-10-08 18:12:00,49.3,45.3,29.78,SSE,162,5.0,11.0,86,0.00,,,0.00,meteohub,2013-10-09 01:12:00,
2013-10-08 18:17:00,48.9,45.1,29.78,ESE,115,6.0,13.0,87,0.00,,,0.00,meteohub,2013-10-09 01:17:00,
2013-10-08 18:22:00,48.7,45.3,29.78,SSE,158,6.0,13.0,88,0.00,,,0.00,meteohub,2013-10-09 01:22:00,
2013-10-08 18:27:00,48.6,45.1,29.77,SE,133,4.0,14.0,88,0.00,,,0.00,meteohub,2013-10-09 01:27:00,
2013-10-08 18:32:00,48.4,45.0,29.77,South,181,1.0,14.0,88,0.00,,,0.00,meteohub,2013-10-09 01:32:00,
2013-10-08 18:37:00,48.2,45.1,29.77,SSE,166,8.0,15.0,89,0.00,,,0.00,meteohub,2013-10-09 01:37:00,
2013-10-08 18:42:00,48.0,45.1,29.77,SE,139,8.0,17.0,90,0.00,,,0.00,meteohub,2013-10-09 01:42:00,
2013-10-08 18:47:00,47.8,45.0,29.77,SW,217,8.0,17.0,90,0.00,,,0.00,meteohub,2013-10-09 01:47:00,
2013-10-08 18:52:00,47.8,45.3,29.77,SW,217,3.0,17.0,91,0.00,,,0.00,meteohub,2013-10-09 01:52:00,
2013-10-08 18:57:00,47.7,45.1,29.77,South,179,6.0,18.0,91,0.00,,,0.00,meteohub,2013-10-09 01:57:00,
2013-10-08 19:02:00,47.7,45.5,29.77,ESE,114,2.0,18.0,92,0.00,,,0.00,meteohub,2013-10-09 02:02:00,
2013-10-08 19:07:00,47.7,45.5,29.77,SSE,158,6.0,18.0,92,0.00,,,0.00,meteohub,2013-10-09 02:07:00,
2013-10-08 19:12:00,47.7,45.7,29.77,SSW,197,4.0,18.0,93,0.00,,,0.00,meteohub,2013-10-09 02:12:00,
2013-10-08 19:17:00,47.7,45.7,29.77,SW,215,6.0,17.0,93,0.00,,,0.00,meteohub,2013-10-09 02:17:00,
2013-10-08 19:22:00,47.5,45.5,29.76,East,97,5.0,14.0,93,0.00,,,0.00,meteohub,2013-10-09 02:22:00,
2013-10-08 19:27:00,47.5,45.5,29.76,SE,131,11.0,16.0,93,0.00,,,0.00,meteohub,2013-10-09 02:27:00,
2013-10-08 19:32:00,47.5,45.9,29.77,ESE,113,12.0,16.0,94,0.00,,,0.00,meteohub,2013-10-09 02:32:00,
2013-10-08 19:37:00,47.5,45.9,29.76,South,173,9.0,19.0,94,0.00,,,0.00,meteohub,2013-10-09 02:37:00,
2013-10-08 19:42:00,47.3,45.7,29.76,SSW,193,2.0,19.0,94,0.00,,,0.00,meteohub,2013-10-09 02:42:00,
2013-10-08 19:47:00,47.3,45.7,29.77,SSE,165,9.0,19.0,94,0.00,,,0.00,meteohub,2013-10-09 02:47:00,
2013-10-08 19:52:00,47.3,45.9,29.77,East,98,6.0,19.0,95,0.00,,,0.00,meteohub,2013-10-09 02:52:00,
2013-10-08 19:57:00,47.1,45.7,29.76,WNW,301,5.0,19.0,95,0.00,,,0.00,meteohub,2013-10-09 02:57:00,
2013-10-08 20:02:00,46.9,45.5,29.77,SSW,195,7.0,19.0,95,0.00,,,0.00,meteohub,2013-10-09 03:02:00,
2013-10-08 20:07:00,46.8,45.3,29.77,South,169,4.0,17.0,95,0.00,,,0.00,meteohub,2013-10-09 03:07:00,
2013-10-08 20:12:00,46.8,45.3,29.77,SW,227,4.0,18.0,95,0.00,,,0.00,meteohub,2013-10-09 03:12:00,
2013-10-08 20:17:00,46.6,45.1,29.77,SSW,210,10.0,18.0,95,0.00,,,0.00,meteohub,2013-10-09 03:17:00,
2013-10-08 20:22:00,46.6,45.1,29.77,ESE,113,5.0,21.0,95,0.00,,,0.00,meteohub,2013-10-09 03:22:00,
2013-10-08 20:27:00,46.4,45.0,29.77,West,267,6.0,21.0,95,0.00,,,0.00,meteohub,2013-10-09 03:27:00,
2013-10-08 20:32:00,46.6,45.1,29.77,SE,133,4.0,21.0,95,0.00,,,0.00,meteohub,2013-10-09 03:32:00,
2013-10-08 20:37:00,46.4,45.0,29.78,South,174,13.0,19.0,95,0.00,,,0.00,meteohub,2013-10-09 03:37:00,
2013-10-08 20:42:00,46.2,44.8,29.78,South,185,11.0,20.0,95,0.00,,,0.00,meteohub,2013-10-09 03:42:00,
2013-10-08 20:47:00,46.0,44.6,29.78,ESE,104,16.0,20.0,95,0.00,,,0.00,meteohub,2013-10-09 03:47:00,
2013-10-08 20:52:00,46.0,44.6,29.77,SE,138,5.0,20.0,95,0.00,,,0.00,meteohub,2013-10-09 03:52:00,
2013-10-08 20:57:00,45.9,44.4,29.77,SE,129,6.0,20.0,95,0.00,,,0.00,meteohub,2013-10-09 03:57:00,
2013-10-08 21:02:00,45.9,44.8,29.78,ESE,107,8.0,20.0,96,0.00,,,0.00,meteohub,2013-10-09 04:02:00,
2013-10-08 21:07:00,45.7,44.6,29.78,SSE,162,7.0,18.0,96,0.00,,,0.00,meteohub,2013-10-09 04:07:00,
2013-10-08 21:12:00,45.5,44.4,29.78,SSE,149,7.0,19.0,96,0.00,,,0.00,meteohub,2013-10-09 04:12:00,
2013-10-08 21:17:00,45.5,44.4,29.78,SSE,154,7.0,19.0,96,0.00,,,0.00,meteohub,2013-10-09 04:17:00,
2013-10-08 21:22:00,45.3,44.2,29.77,SSE,159,7.0,19.0,96,0.00,,,0.00,meteohub,2013-10-09 04:22:00,
2013-10-08 21:27:00,45.3,44.2,29.78,ESE,119,14.0,18.0,96,0.00,,,0.00,meteohub,2013-10-09 04:27:00,
2013-10-08 21:32:00,45.1,44.1,29.78,ESE,114,7.0,18.0,96,0.00,,,0.00,meteohub,2013-10-09 04:32:00,
2013-10-08 21:37:00,45.0,43.9,29.78,SE,129,5.0,18.0,96,0.00,,,0.00,meteohub,2013-10-09 04:37:00,
2013-10-08 21:42:00,44.8,43.7,29.78,ESE,122,4.0,18.0,96,0.00,,,0.00,meteohub,2013-10-09 04:42:00,
2013-10-08 21:47:00,44.6,43.5,29.78,SSE,164,5.0,18.0,96,0.00,,,0.00,meteohub,2013-10-09 04:47:00,
2013-10-08 21:52:00,44.2,43.2,29.78,SSE,152,12.0,17.0,96,0.00,,,0.00,meteohub,2013-10-09 04:52:00,
2013-10-08 21:57:00,44.2,43.2,29.78,SSE,149,5.0,25.0,96,0.00,,,0.00,meteohub,2013-10-09 04:57:00,
2013-10-08 22:02:00,44.2,43.2,29.78,SSE,162,5.0,25.0,96,0.00,,,0.00,meteohub,2013-10-09 05:02:00,
2013-10-08 22:07:00,44.1,43.0,29.78,East,90,9.0,16.0,96,0.00,,,0.00,meteohub,2013-10-09 05:07:00,
2013-10-08 22:12:00,44.1,43.0,29.78,ESE,104,2.0,17.0,96,0.00,,,0.00,meteohub,2013-10-09 05:12:00,
2013-10-08 22:17:00,44.1,43.0,29.77,SSE,167,5.0,17.0,96,0.00,,,0.00,meteohub,2013-10-09 05:17:00,
2013-10-08 22:22:00,44.1,43.0,29.78,WSW,242,11.0,17.0,96,0.00,,,0.00,meteohub,2013-10-09 05:22:00,
2013-10-08 22:27:00,44.1,43.0,29.78,SW,214,6.0,16.0,96,0.00,,,0.00,meteohub,2013-10-09 05:27:00,
2013-10-08 22:32:00,44.2,43.2,29.78,ESE,120,4.0,16.0,96,0.00,,,0.00,meteohub,2013-10-09 05:32:00,
2013-10-08 22:37:00,43.9,42.8,29.78,South,174,12.0,15.0,96,0.00,,,0.00,meteohub,2013-10-09 05:37:00,
2013-10-08 22:42:00,43.9,42.8,29.78,SSE,151,7.0,15.0,96,0.00,,,0.00,meteohub,2013-10-09 05:42:00,
2013-10-08 22:47:00,43.9,42.8,29.78,SE,136,5.0,14.0,96,0.00,,,0.00,meteohub,2013-10-09 05:47:00,
2013-10-08 22:52:00,43.5,42.4,29.78,SSW,210,4.0,14.0,96,0.00,,,0.00,meteohub,2013-10-09 05:52:00,
2013-10-08 22:57:00,43.5,42.4,29.78,East,101,8.0,14.0,96,0.00,,,0.00,meteohub,2013-10-09 05:57:00,
2013-10-08 23:02:00,43.5,42.4,29.78,South,190,3.0,12.0,96,0.00,,,0.00,meteohub,2013-10-09 06:02:00,
2013-10-08 23:07:00,43.5,42.4,29.78,South,180,1.0,12.0,96,0.00,,,0.00,meteohub,2013-10-09 06:07:00,
2013-10-08 23:12:00,43.5,42.4,29.78,SW,225,2.0,12.0,96,0.00,,,0.00,meteohub,2013-10-09 06:12:00,
2013-10-08 23:17:00,43.3,42.3,29.77,ESE,115,5.0,12.0,96,0.00,,,0.00,meteohub,2013-10-09 06:17:00,
2013-10-08 23:22:00,43.3,42.3,29.77,ENE,57,4.0,10.0,96,0.00,,,0.00,meteohub,2013-10-09 06:22:00,
2013-10-08 23:27:00,43.3,42.3,29.77,South,191,2.0,10.0,96,0.00,,,0.00,meteohub,2013-10-09 06:27:00,
2013-10-08 23:32:00,43.3,42.3,29.76,SSE,161,2.0,10.0,96,0.00,,,0.00,meteohub,2013-10-09 06:32:00,
2013-10-08 23:37:00,43.3,42.3,29.77,East,91,2.0,10.0,96,0.00,,,0.00,meteohub,2013-10-09 06:37:00,
2013-10-08 23:42:00,43.3,42.3,29.77,WSW,243,0.0,9.0,96,0.00,,,0.00,meteohub,2013-10-09 06:42:00,
2013-10-08 23:47:00,43.3,42.3,29.77,WSW,255,1.0,7.0,96,0.00,,,0.00,meteohub,2013-10-09 06:47:00,
2013-10-08 23:52:00,43.2,42.1,29.76,SE,145,0.0,7.0,96,0.00,,,0.00,meteohub,2013-10-09 06:52:00,
2013-10-08 23:57:00,43.0,41.9,29.76,ESE,113,3.0,9.0,96,0.00,,,0.00,meteohub,2013-10-09 06:57:00,